Flugwetter

[source: ADDS]
METAR
LOWL 181320Z 24013KT 9999 FEW024 SCT026 BKN100 06/01 Q1018 NOSIG =
TAF LOWL 181115Z 1812/1912 27010KT 9999 BKN040 TX07/1912Z TN01/1904Z PROB40 TEMPO 1812/1816 29015G25KT 4000 SHRA FEW015TCU BKN020 BECMG 1817/1819 27005KT
TAF
TAF LOWL 181115Z 1812/1912 27010KT 9999 BKN040 TX07/1912Z TN01/1904Z PROB40 TEMPO 1812/1816 29015G25KT 4000 SHRA FEW015TCU BKN020 BECMG 1817/1819 27005KT =